sensor_id;sensor_type;location;lat;lon;timestamp;P1;durP1;ratioP1;P2;durP2;ratioP2
43160;SDS011;40968;52.342;5.528;2023-05-10T00:01:49;41.92;;;12.95;;
43160;SDS011;40968;52.342;5.528;2023-05-10T00:04:16;38.67;;;13.45;;
43160;SDS011;40968;52.342;5.528;2023-05-10T00:06:42;43.55;;;15.27;;
43160;SDS011;40968;52.342;5.528;2023-05-10T00:09:09;46.40;;;15.60;;
43160;SDS011;40968;52.342;5.528;2023-05-10T00:11:35;56.28;;;18.75;;
43160;SDS011;40968;52.342;5.528;2023-05-10T00:14:04;57.47;;;16.63;;
43160;SDS011;40968;52.342;5.528;2023-05-10T00:16:30;47.15;;;16.58;;
43160;SDS011;40968;52.342;5.528;2023-05-10T00:18:57;52.47;;;18.33;;
43160;SDS011;40968;52.342;5.528;2023-05-10T00:21:23;45.20;;;16.88;;
43160;SDS011;40968;52.342;5.528;2023-05-10T00:23:50;62.05;;;19.42;;
43160;SDS011;40968;52.342;5.528;2023-05-10T00:26:17;71.57;;;21.52;;
43160;SDS011;40968;52.342;5.528;2023-05-10T00:28:43;59.90;;;19.27;;
43160;SDS011;40968;52.342;5.528;2023-05-10T00:31:11;57.78;;;19.17;;
43160;SDS011;40968;52.342;5.528;2023-05-10T00:33:39;63.40;;;19.98;;
43160;SDS011;40968;52.342;5.528;2023-05-10T00:36:06;65.53;;;20.30;;
43160;SDS011;40968;52.342;5.528;2023-05-10T00:38:33;58.75;;;19.05;;
43160;SDS011;40968;52.342;5.528;2023-05-10T00:41:00;67.85;;;22.55;;
43160;SDS011;40968;52.342;5.528;2023-05-10T00:43:27;67.68;;;20.77;;
43160;SDS011;40968;52.342;5.528;2023-05-10T00:45:54;73.18;;;23.20;;
43160;SDS011;40968;52.342;5.528;2023-05-10T00:48:22;68.88;;;22.75;;
43160;SDS011;40968;52.342;5.528;2023-05-10T00:50:49;75.68;;;24.65;;
43160;SDS011;40968;52.342;5.528;2023-05-10T00:53:15;74.55;;;25.33;;
43160;SDS011;40968;52.342;5.528;2023-05-10T00:55:42;73.15;;;23.33;;
43160;SDS011;40968;52.342;5.528;2023-05-10T00:58:09;69.03;;;22.73;;
43160;SDS011;40968;52.342;5.528;2023-05-10T01:00:36;63.47;;;20.42;;
43160;SDS011;40968;52.342;5.528;2023-05-10T01:03:04;65.20;;;21.42;;
43160;SDS011;40968;52.342;5.528;2023-05-10T01:05:32;64.38;;;23.73;;
43160;SDS011;40968;52.342;5.528;2023-05-10T01:07:58;72.05;;;22.38;;
43160;SDS011;40968;52.342;5.528;2023-05-10T01:10:25;74.93;;;23.98;;
43160;SDS011;40968;52.342;5.528;2023-05-10T01:12:52;74.32;;;25.67;;
43160;SDS011;40968;52.342;5.528;2023-05-10T01:15:18;79.57;;;24.98;;
43160;SDS011;40968;52.342;5.528;2023-05-10T01:17:46;73.15;;;24.98;;
43160;SDS011;40968;52.342;5.528;2023-05-10T01:20:14;85.03;;;27.52;;
43160;SDS011;40968;52.342;5.528;2023-05-10T01:25:50;86.40;;;27.02;;
43160;SDS011;40968;52.342;5.528;2023-05-10T01:28:39;79.20;;;26.05;;
43160;SDS011;40968;52.342;5.528;2023-05-10T01:31:26;95.22;;;29.35;;
43160;SDS011;40968;52.342;5.528;2023-05-10T01:34:05;97.97;;;30.27;;
43160;SDS011;40968;52.342;5.528;2023-05-10T01:36:38;91.32;;;28.88;;
43160;SDS011;40968;52.342;5.528;2023-05-10T01:39:11;99.72;;;30.60;;
43160;SDS011;40968;52.342;5.528;2023-05-10T01:41:45;102.10;;;31.67;;
43160;SDS011;40968;52.342;5.528;2023-05-10T01:44:17;116.57;;;33.25;;
43160;SDS011;40968;52.342;5.528;2023-05-10T01:46:48;105.35;;;31.65;;
43160;SDS011;40968;52.342;5.528;2023-05-10T01:49:22;109.78;;;32.13;;
43160;SDS011;40968;52.342;5.528;2023-05-10T01:51:52;109.32;;;33.30;;
43160;SDS011;40968;52.342;5.528;2023-05-10T01:54:21;115.93;;;35.60;;
43160;SDS011;40968;52.342;5.528;2023-05-10T01:56:52;115.50;;;33.40;;
43160;SDS011;40968;52.342;5.528;2023-05-10T01:59:24;113.78;;;33.05;;
43160;SDS011;40968;52.342;5.528;2023-05-10T02:01:54;112.03;;;32.97;;
43160;SDS011;40968;52.342;5.528;2023-05-10T02:04:26;114.05;;;35.08;;
43160;SDS011;40968;52.342;5.528;2023-05-10T02:06:54;108.03;;;32.25;;
43160;SDS011;40968;52.342;5.528;2023-05-10T02:09:21;117.70;;;34.92;;
43160;SDS011;40968;52.342;5.528;2023-05-10T02:11:50;124.18;;;35.75;;
43160;SDS011;40968;52.342;5.528;2023-05-10T02:14:16;131.30;;;36.63;;
43160;SDS011;40968;52.342;5.528;2023-05-10T02:16:45;123.32;;;35.90;;
43160;SDS011;40968;52.342;5.528;2023-05-10T02:19:13;111.53;;;36.67;;
43160;SDS011;40968;52.342;5.528;2023-05-10T02:21:42;127.10;;;36.97;;
43160;SDS011;40968;52.342;5.528;2023-05-10T02:24:11;115.20;;;37.50;;
43160;SDS011;40968;52.342;5.528;2023-05-10T02:26:39;127.72;;;36.05;;
43160;SDS011;40968;52.342;5.528;2023-05-10T02:29:07;130.18;;;38.78;;
43160;SDS011;40968;52.342;5.528;2023-05-10T02:31:37;113.20;;;35.92;;
43160;SDS011;40968;52.342;5.528;2023-05-10T02:34:04;127.95;;;37.53;;
43160;SDS011;40968;52.342;5.528;2023-05-10T02:36:33;129.75;;;38.67;;
43160;SDS011;40968;52.342;5.528;2023-05-10T02:39:03;140.85;;;40.90;;
43160;SDS011;40968;52.342;5.528;2023-05-10T02:41:34;126.97;;;37.45;;
43160;SDS011;40968;52.342;5.528;2023-05-10T02:44:02;130.70;;;39.53;;
43160;SDS011;40968;52.342;5.528;2023-05-10T02:46:31;147.85;;;40.97;;
43160;SDS011;40968;52.342;5.528;2023-05-10T02:48:58;134.55;;;40.35;;
43160;SDS011;40968;52.342;5.528;2023-05-10T02:51:25;121.85;;;40.53;;
43160;SDS011;40968;52.342;5.528;2023-05-10T02:53:57;131.10;;;40.92;;
43160;SDS011;40968;52.342;5.528;2023-05-10T02:56:29;127.65;;;40.95;;
43160;SDS011;40968;52.342;5.528;2023-05-10T02:58:59;133.55;;;42.22;;
43160;SDS011;40968;52.342;5.528;2023-05-10T03:01:26;123.18;;;39.22;;
43160;SDS011;40968;52.342;5.528;2023-05-10T03:03:52;149.73;;;41.75;;
43160;SDS011;40968;52.342;5.528;2023-05-10T03:06:19;139.50;;;41.47;;
43160;SDS011;40968;52.342;5.528;2023-05-10T03:08:46;136.80;;;40.85;;
43160;SDS011;40968;52.342;5.528;2023-05-10T03:11:16;149.88;;;45.55;;
43160;SDS011;40968;52.342;5.528;2023-05-10T03:13:56;132.40;;;42.88;;
43160;SDS011;40968;52.342;5.528;2023-05-10T03:16:39;146.75;;;43.38;;
43160;SDS011;40968;52.342;5.528;2023-05-10T03:19:11;142.88;;;43.10;;
43160;SDS011;40968;52.342;5.528;2023-05-10T03:21:43;145.07;;;45.67;;
43160;SDS011;40968;52.342;5.528;2023-05-10T03:24:15;144.73;;;44.05;;
43160;SDS011;40968;52.342;5.528;2023-05-10T03:26:44;149.50;;;46.53;;
43160;SDS011;40968;52.342;5.528;2023-05-10T03:29:13;139.88;;;41.97;;
43160;SDS011;40968;52.342;5.528;2023-05-10T03:31:41;138.00;;;42.47;;
43160;SDS011;40968;52.342;5.528;2023-05-10T03:34:08;128.13;;;41.78;;
43160;SDS011;40968;52.342;5.528;2023-05-10T03:36:35;143.15;;;44.20;;
43160;SDS011;40968;52.342;5.528;2023-05-10T03:39:02;127.70;;;41.17;;
43160;SDS011;40968;52.342;5.528;2023-05-10T03:41:28;116.38;;;38.70;;
43160;SDS011;40968;52.342;5.528;2023-05-10T03:43:55;133.52;;;39.50;;
43160;SDS011;40968;52.342;5.528;2023-05-10T03:46:23;118.95;;;37.20;;
43160;SDS011;40968;52.342;5.528;2023-05-10T03:48:49;123.10;;;39.10;;
43160;SDS011;40968;52.342;5.528;2023-05-10T03:51:16;126.20;;;36.47;;
43160;SDS011;40968;52.342;5.528;2023-05-10T03:53:43;132.05;;;39.75;;
43160;SDS011;40968;52.342;5.528;2023-05-10T03:56:09;135.00;;;39.97;;
43160;SDS011;40968;52.342;5.528;2023-05-10T03:58:36;131.25;;;39.47;;
43160;SDS011;40968;52.342;5.528;2023-05-10T04:01:03;135.80;;;39.63;;
43160;SDS011;40968;52.342;5.528;2023-05-10T04:03:31;133.57;;;40.05;;
43160;SDS011;40968;52.342;5.528;2023-05-10T04:06:00;133.63;;;40.95;;
43160;SDS011;40968;52.342;5.528;2023-05-10T04:08:27;136.63;;;41.35;;
43160;SDS011;40968;52.342;5.528;2023-05-10T04:10:54;139.43;;;38.30;;
43160;SDS011;40968;52.342;5.528;2023-05-10T04:13:20;127.43;;;37.58;;
43160;SDS011;40968;52.342;5.528;2023-05-10T04:15:47;127.75;;;38.50;;
43160;SDS011;40968;52.342;5.528;2023-05-10T04:18:14;129.23;;;37.10;;
43160;SDS011;40968;52.342;5.528;2023-05-10T04:20:42;115.13;;;35.10;;
43160;SDS011;40968;52.342;5.528;2023-05-10T04:23:08;137.95;;;38.95;;
43160;SDS011;40968;52.342;5.528;2023-05-10T04:25:35;125.10;;;35.47;;
43160;SDS011;40968;52.342;5.528;2023-05-10T04:28:02;121.75;;;37.03;;
43160;SDS011;40968;52.342;5.528;2023-05-10T04:30:29;122.65;;;34.65;;
43160;SDS011;40968;52.342;5.528;2023-05-10T04:32:55;129.40;;;39.28;;
43160;SDS011;40968;52.342;5.528;2023-05-10T04:35:23;112.05;;;36.50;;
43160;SDS011;40968;52.342;5.528;2023-05-10T04:37:51;124.88;;;38.45;;
43160;SDS011;40968;52.342;5.528;2023-05-10T04:40:17;126.63;;;36.78;;
43160;SDS011;40968;52.342;5.528;2023-05-10T04:42:44;125.68;;;37.05;;
43160;SDS011;40968;52.342;5.528;2023-05-10T04:45:11;114.25;;;33.67;;
43160;SDS011;40968;52.342;5.528;2023-05-10T04:47:39;120.47;;;36.30;;
43160;SDS011;40968;52.342;5.528;2023-05-10T04:50:06;113.95;;;35.08;;
43160;SDS011;40968;52.342;5.528;2023-05-10T04:52:33;121.78;;;36.15;;
43160;SDS011;40968;52.342;5.528;2023-05-10T04:55:02;111.60;;;34.40;;
43160;SDS011;40968;52.342;5.528;2023-05-10T04:57:29;124.65;;;35.75;;
43160;SDS011;40968;52.342;5.528;2023-05-10T04:59:56;133.95;;;37.83;;
43160;SDS011;40968;52.342;5.528;2023-05-10T05:02:23;119.50;;;36.20;;
43160;SDS011;40968;52.342;5.528;2023-05-10T05:04:50;122.85;;;37.20;;
43160;SDS011;40968;52.342;5.528;2023-05-10T05:07:16;121.50;;;37.10;;
43160;SDS011;40968;52.342;5.528;2023-05-10T05:09:43;129.82;;;36.58;;
43160;SDS011;40968;52.342;5.528;2023-05-10T05:12:11;103.05;;;31.38;;
43160;SDS011;40968;52.342;5.528;2023-05-10T05:14:39;115.55;;;36.35;;
43160;SDS011;40968;52.342;5.528;2023-05-10T05:17:06;105.55;;;33.63;;
43160;SDS011;40968;52.342;5.528;2023-05-10T05:19:32;117.90;;;34.60;;
43160;SDS011;40968;52.342;5.528;2023-05-10T05:21:59;125.82;;;36.17;;
43160;SDS011;40968;52.342;5.528;2023-05-10T05:24:26;116.50;;;34.05;;
43160;SDS011;40968;52.342;5.528;2023-05-10T05:26:52;113.55;;;34.88;;
43160;SDS011;40968;52.342;5.528;2023-05-10T05:29:20;123.78;;;36.28;;
43160;SDS011;40968;52.342;5.528;2023-05-10T05:31:47;116.78;;;35.10;;
43160;SDS011;40968;52.342;5.528;2023-05-10T05:34:13;134.68;;;37.97;;
43160;SDS011;40968;52.342;5.528;2023-05-10T05:36:40;120.88;;;35.72;;
43160;SDS011;40968;52.342;5.528;2023-05-10T05:39:06;116.15;;;35.67;;
43160;SDS011;40968;52.342;5.528;2023-05-10T05:41:33;123.20;;;38.08;;
43160;SDS011;40968;52.342;5.528;2023-05-10T05:43:59;129.10;;;37.78;;
43160;SDS011;40968;52.342;5.528;2023-05-10T05:46:27;134.38;;;38.28;;
43160;SDS011;40968;52.342;5.528;2023-05-10T05:48:54;140.85;;;41.83;;
43160;SDS011;40968;52.342;5.528;2023-05-10T05:51:21;127.82;;;40.33;;
43160;SDS011;40968;52.342;5.528;2023-05-10T05:53:47;142.13;;;40.10;;
43160;SDS011;40968;52.342;5.528;2023-05-10T05:56:14;135.48;;;39.00;;
43160;SDS011;40968;52.342;5.528;2023-05-10T05:58:42;120.85;;;34.15;;
43160;SDS011;40968;52.342;5.528;2023-05-10T06:01:09;125.35;;;35.83;;
43160;SDS011;40968;52.342;5.528;2023-05-10T06:03:37;132.65;;;33.72;;
43160;SDS011;40968;52.342;5.528;2023-05-10T06:06:04;111.55;;;32.75;;
43160;SDS011;40968;52.342;5.528;2023-05-10T06:08:30;123.43;;;31.52;;
43160;SDS011;40968;52.342;5.528;2023-05-10T06:10:58;112.40;;;31.30;;
43160;SDS011;40968;52.342;5.528;2023-05-10T06:13:25;95.57;;;29.67;;
43160;SDS011;40968;52.342;5.528;2023-05-10T06:15:53;103.25;;;25.83;;
43160;SDS011;40968;52.342;5.528;2023-05-10T06:18:20;103.80;;;27.15;;
43160;SDS011;40968;52.342;5.528;2023-05-10T06:20:48;94.53;;;26.30;;
43160;SDS011;40968;52.342;5.528;2023-05-10T06:23:15;90.78;;;26.63;;
43160;SDS011;40968;52.342;5.528;2023-05-10T06:25:42;82.03;;;25.27;;
43160;SDS011;40968;52.342;5.528;2023-05-10T06:28:08;89.35;;;25.13;;
43160;SDS011;40968;52.342;5.528;2023-05-10T06:30:35;83.45;;;21.95;;
43160;SDS011;40968;52.342;5.528;2023-05-10T06:33:03;82.70;;;22.63;;
43160;SDS011;40968;52.342;5.528;2023-05-10T06:35:29;76.90;;;21.08;;
43160;SDS011;40968;52.342;5.528;2023-05-10T06:37:58;74.35;;;20.63;;
43160;SDS011;40968;52.342;5.528;2023-05-10T06:40:25;75.97;;;19.27;;
43160;SDS011;40968;52.342;5.528;2023-05-10T06:42:51;56.28;;;17.38;;
43160;SDS011;40968;52.342;5.528;2023-05-10T06:45:18;65.40;;;18.00;;
43160;SDS011;40968;52.342;5.528;2023-05-10T06:47:45;57.63;;;16.58;;
43160;SDS011;40968;52.342;5.528;2023-05-10T06:50:11;60.97;;;17.77;;
43160;SDS011;40968;52.342;5.528;2023-05-10T06:52:38;61.53;;;17.75;;
43160;SDS011;40968;52.342;5.528;2023-05-10T06:55:07;59.65;;;17.65;;
43160;SDS011;40968;52.342;5.528;2023-05-10T06:57:34;61.95;;;16.33;;
43160;SDS011;40968;52.342;5.528;2023-05-10T07:00:01;44.58;;;14.63;;
43160;SDS011;40968;52.342;5.528;2023-05-10T07:02:30;48.05;;;15.50;;
43160;SDS011;40968;52.342;5.528;2023-05-10T07:04:56;45.63;;;14.13;;
43160;SDS011;40968;52.342;5.528;2023-05-10T07:07:23;43.53;;;13.48;;
43160;SDS011;40968;52.342;5.528;2023-05-10T07:09:49;39.95;;;12.70;;
43160;SDS011;40968;52.342;5.528;2023-05-10T07:12:17;41.25;;;12.88;;
43160;SDS011;40968;52.342;5.528;2023-05-10T07:14:44;41.33;;;12.82;;
43160;SDS011;40968;52.342;5.528;2023-05-10T07:17:11;46.72;;;13.43;;
43160;SDS011;40968;52.342;5.528;2023-05-10T07:19:38;43.67;;;12.93;;
43160;SDS011;40968;52.342;5.528;2023-05-10T07:22:04;43.33;;;13.15;;
43160;SDS011;40968;52.342;5.528;2023-05-10T07:24:31;47.97;;;13.68;;
43160;SDS011;40968;52.342;5.528;2023-05-10T07:26:58;35.58;;;11.55;;
43160;SDS011;40968;52.342;5.528;2023-05-10T07:29:26;40.97;;;11.18;;
43160;SDS011;40968;52.342;5.528;2023-05-10T07:31:53;34.10;;;10.13;;
43160;SDS011;40968;52.342;5.528;2023-05-10T07:34:20;33.60;;;11.77;;
43160;SDS011;40968;52.342;5.528;2023-05-10T07:36:46;33.45;;;11.40;;
43160;SDS011;40968;52.342;5.528;2023-05-10T07:39:13;39.22;;;11.88;;
43160;SDS011;40968;52.342;5.528;2023-05-10T07:41:40;33.83;;;10.07;;
43160;SDS011;40968;52.342;5.528;2023-05-10T07:44:06;37.75;;;11.27;;
43160;SDS011;40968;52.342;5.528;2023-05-10T07:46:34;30.35;;;10.07;;
43160;SDS011;40968;52.342;5.528;2023-05-10T07:49:01;29.35;;;10.55;;
43160;SDS011;40968;52.342;5.528;2023-05-10T07:51:27;32.92;;;10.95;;
43160;SDS011;40968;52.342;5.528;2023-05-10T07:53:54;27.48;;;8.63;;
43160;SDS011;40968;52.342;5.528;2023-05-10T07:56:22;32.92;;;10.35;;
43160;SDS011;40968;52.342;5.528;2023-05-10T07:58:52;32.53;;;10.50;;
43160;SDS011;40968;52.342;5.528;2023-05-10T08:01:19;28.88;;;9.45;;
43160;SDS011;40968;52.342;5.528;2023-05-10T08:03:47;26.80;;;9.18;;
43160;SDS011;40968;52.342;5.528;2023-05-10T08:06:13;30.65;;;10.25;;
43160;SDS011;40968;52.342;5.528;2023-05-10T08:08:40;28.23;;;9.70;;
43160;SDS011;40968;52.342;5.528;2023-05-10T08:11:07;27.88;;;9.38;;
43160;SDS011;40968;52.342;5.528;2023-05-10T08:13:34;28.23;;;8.38;;
43160;SDS011;40968;52.342;5.528;2023-05-10T08:16:00;27.67;;;8.80;;
43160;SDS011;40968;52.342;5.528;2023-05-10T08:18:27;26.60;;;8.75;;
43160;SDS011;40968;52.342;5.528;2023-05-10T08:20:55;26.50;;;8.88;;
43160;SDS011;40968;52.342;5.528;2023-05-10T08:23:21;27.02;;;8.73;;
43160;SDS011;40968;52.342;5.528;2023-05-10T08:25:48;29.35;;;8.82;;
43160;SDS011;40968;52.342;5.528;2023-05-10T08:28:15;30.33;;;9.93;;
43160;SDS011;40968;52.342;5.528;2023-05-10T08:30:41;28.92;;;8.75;;
43160;SDS011;40968;52.342;5.528;2023-05-10T08:33:08;25.65;;;7.72;;
43160;SDS011;40968;52.342;5.528;2023-05-10T08:35:34;32.70;;;9.35;;
43160;SDS011;40968;52.342;5.528;2023-05-10T08:38:02;28.05;;;8.85;;
43160;SDS011;40968;52.342;5.528;2023-05-10T08:40:29;24.33;;;6.95;;
43160;SDS011;40968;52.342;5.528;2023-05-10T08:42:57;21.23;;;7.57;;
43160;SDS011;40968;52.342;5.528;2023-05-10T08:45:29;21.92;;;7.50;;
43160;SDS011;40968;52.342;5.528;2023-05-10T08:47:59;22.00;;;8.23;;
43160;SDS011;40968;52.342;5.528;2023-05-10T08:50:27;22.95;;;6.97;;
43160;SDS011;40968;52.342;5.528;2023-05-10T08:52:54;20.65;;;7.22;;
43160;SDS011;40968;52.342;5.528;2023-05-10T08:55:25;22.92;;;7.05;;
43160;SDS011;40968;52.342;5.528;2023-05-10T08:57:51;23.65;;;8.15;;
43160;SDS011;40968;52.342;5.528;2023-05-10T09:00:19;25.10;;;7.13;;
43160;SDS011;40968;52.342;5.528;2023-05-10T09:02:48;24.90;;;7.07;;
43160;SDS011;40968;52.342;5.528;2023-05-10T09:05:15;24.20;;;7.75;;
43160;SDS011;40968;52.342;5.528;2023-05-10T09:07:42;22.95;;;8.07;;
43160;SDS011;40968;52.342;5.528;2023-05-10T09:10:09;27.02;;;7.95;;
43160;SDS011;40968;52.342;5.528;2023-05-10T09:12:38;22.45;;;7.43;;
43160;SDS011;40968;52.342;5.528;2023-05-10T09:15:05;26.60;;;6.82;;
43160;SDS011;40968;52.342;5.528;2023-05-10T09:17:35;22.05;;;6.45;;
43160;SDS011;40968;52.342;5.528;2023-05-10T09:20:03;25.38;;;6.68;;
43160;SDS011;40968;52.342;5.528;2023-05-10T09:22:30;16.67;;;5.97;;
43160;SDS011;40968;52.342;5.528;2023-05-10T09:25:04;21.02;;;7.05;;
43160;SDS011;40968;52.342;5.528;2023-05-10T09:27:31;17.20;;;6.00;;
43160;SDS011;40968;52.342;5.528;2023-05-10T09:30:00;21.33;;;6.13;;
43160;SDS011;40968;52.342;5.528;2023-05-10T09:32:35;21.70;;;6.18;;
43160;SDS011;40968;52.342;5.528;2023-05-10T09:35:06;30.25;;;6.30;;
43160;SDS011;40968;52.342;5.528;2023-05-10T09:37:36;18.38;;;5.90;;
43160;SDS011;40968;52.342;5.528;2023-05-10T09:40:06;21.63;;;7.23;;
43160;SDS011;40968;52.342;5.528;2023-05-10T09:42:33;15.18;;;5.60;;
43160;SDS011;40968;52.342;5.528;2023-05-10T09:45:02;15.35;;;5.05;;
43160;SDS011;40968;52.342;5.528;2023-05-10T09:47:31;22.63;;;6.32;;
43160;SDS011;40968;52.342;5.528;2023-05-10T09:49:58;20.20;;;5.88;;
43160;SDS011;40968;52.342;5.528;2023-05-10T09:52:28;26.05;;;5.85;;
43160;SDS011;40968;52.342;5.528;2023-05-10T09:54:55;14.50;;;5.47;;
43160;SDS011;40968;52.342;5.528;2023-05-10T09:57:22;16.60;;;5.72;;
43160;SDS011;40968;52.342;5.528;2023-05-10T09:59:50;14.45;;;5.18;;
43160;SDS011;40968;52.342;5.528;2023-05-10T10:02:19;15.70;;;5.35;;
43160;SDS011;40968;52.342;5.528;2023-05-10T10:04:48;15.60;;;4.88;;
43160;SDS011;40968;52.342;5.528;2023-05-10T10:07:17;15.18;;;5.75;;
43160;SDS011;40968;52.342;5.528;2023-05-10T10:09:49;17.17;;;4.97;;
43160;SDS011;40968;52.342;5.528;2023-05-10T10:12:16;15.57;;;5.97;;
43160;SDS011;40968;52.342;5.528;2023-05-10T10:14:42;16.33;;;5.18;;
43160;SDS011;40968;52.342;5.528;2023-05-10T10:17:09;15.63;;;5.78;;
43160;SDS011;40968;52.342;5.528;2023-05-10T10:19:38;16.83;;;5.57;;
43160;SDS011;40968;52.342;5.528;2023-05-10T10:22:04;17.13;;;5.15;;
43160;SDS011;40968;52.342;5.528;2023-05-10T10:24:31;17.88;;;5.82;;
43160;SDS011;40968;52.342;5.528;2023-05-10T10:27:00;22.85;;;5.97;;
43160;SDS011;40968;52.342;5.528;2023-05-10T10:29:35;16.40;;;5.85;;
43160;SDS011;40968;52.342;5.528;2023-05-10T10:32:08;17.65;;;5.65;;
43160;SDS011;40968;52.342;5.528;2023-05-10T10:34:44;17.38;;;5.90;;
43160;SDS011;40968;52.342;5.528;2023-05-10T10:37:11;14.93;;;5.35;;
43160;SDS011;40968;52.342;5.528;2023-05-10T10:39:38;20.15;;;6.45;;
43160;SDS011;40968;52.342;5.528;2023-05-10T10:42:05;16.48;;;5.00;;
43160;SDS011;40968;52.342;5.528;2023-05-10T10:44:38;15.98;;;5.45;;
43160;SDS011;40968;52.342;5.528;2023-05-10T10:47:07;18.13;;;5.55;;
43160;SDS011;40968;52.342;5.528;2023-05-10T10:49:50;14.38;;;5.88;;
43160;SDS011;40968;52.342;5.528;2023-05-10T10:52:22;21.85;;;5.97;;
43160;SDS011;40968;52.342;5.528;2023-05-10T10:54:56;19.00;;;6.32;;
43160;SDS011;40968;52.342;5.528;2023-05-10T10:57:25;21.10;;;7.35;;
43160;SDS011;40968;52.342;5.528;2023-05-10T11:03:05;22.75;;;7.25;;
43160;SDS011;40968;52.342;5.528;2023-05-10T11:05:38;19.05;;;6.50;;
43160;SDS011;40968;52.342;5.528;2023-05-10T11:08:07;19.52;;;6.65;;
43160;SDS011;40968;52.342;5.528;2023-05-10T11:10:36;20.97;;;7.20;;
43160;SDS011;40968;52.342;5.528;2023-05-10T11:13:04;21.10;;;7.38;;
43160;SDS011;40968;52.342;5.528;2023-05-10T11:15:32;15.70;;;6.78;;
43160;SDS011;40968;52.342;5.528;2023-05-10T11:17:59;17.88;;;6.25;;
43160;SDS011;40968;52.342;5.528;2023-05-10T11:20:43;21.33;;;7.20;;
43160;SDS011;40968;52.342;5.528;2023-05-10T11:23:12;21.40;;;7.15;;
43160;SDS011;40968;52.342;5.528;2023-05-10T11:25:41;17.83;;;6.68;;
43160;SDS011;40968;52.342;5.528;2023-05-10T11:28:09;22.23;;;6.57;;
43160;SDS011;40968;52.342;5.528;2023-05-10T11:30:36;18.65;;;7.07;;
43160;SDS011;40968;52.342;5.528;2023-05-10T11:33:04;19.15;;;7.15;;
43160;SDS011;40968;52.342;5.528;2023-05-10T11:35:36;19.73;;;6.88;;
43160;SDS011;40968;52.342;5.528;2023-05-10T11:38:06;21.98;;;6.50;;
43160;SDS011;40968;52.342;5.528;2023-05-10T11:40:33;21.27;;;6.70;;
43160;SDS011;40968;52.342;5.528;2023-05-10T11:43:00;19.10;;;6.97;;
43160;SDS011;40968;52.342;5.528;2023-05-10T11:45:28;16.33;;;6.50;;
43160;SDS011;40968;52.342;5.528;2023-05-10T11:47:56;19.65;;;6.95;;
43160;SDS011;40968;52.342;5.528;2023-05-10T11:50:24;15.50;;;6.20;;
43160;SDS011;40968;52.342;5.528;2023-05-10T11:52:51;19.13;;;7.43;;
43160;SDS011;40968;52.342;5.528;2023-05-10T11:55:19;16.48;;;6.68;;
43160;SDS011;40968;52.342;5.528;2023-05-10T11:57:46;19.50;;;6.50;;
43160;SDS011;40968;52.342;5.528;2023-05-10T12:00:14;21.48;;;6.38;;
43160;SDS011;40968;52.342;5.528;2023-05-10T12:02:41;16.55;;;6.35;;
43160;SDS011;40968;52.342;5.528;2023-05-10T12:05:08;22.02;;;5.95;;
43160;SDS011;40968;52.342;5.528;2023-05-10T12:07:35;16.40;;;5.95;;
43160;SDS011;40968;52.342;5.528;2023-05-10T12:10:03;17.48;;;6.00;;
43160;SDS011;40968;52.342;5.528;2023-05-10T12:12:36;15.68;;;5.78;;
43160;SDS011;40968;52.342;5.528;2023-05-10T12:15:04;17.60;;;5.95;;
43160;SDS011;40968;52.342;5.528;2023-05-10T12:17:32;18.90;;;5.40;;
43160;SDS011;40968;52.342;5.528;2023-05-10T12:20:12;18.77;;;5.65;;
43160;SDS011;40968;52.342;5.528;2023-05-10T12:22:39;12.35;;;5.05;;
43160;SDS011;40968;52.342;5.528;2023-05-10T12:25:07;12.85;;;4.57;;
43160;SDS011;40968;52.342;5.528;2023-05-10T12:27:36;16.63;;;5.13;;
43160;SDS011;40968;52.342;5.528;2023-05-10T12:30:03;15.25;;;5.35;;
43160;SDS011;40968;52.342;5.528;2023-05-10T12:32:37;14.75;;;5.38;;
43160;SDS011;40968;52.342;5.528;2023-05-10T12:35:04;15.27;;;5.07;;
43160;SDS011;40968;52.342;5.528;2023-05-10T12:37:31;12.77;;;5.00;;
43160;SDS011;40968;52.342;5.528;2023-05-10T12:40:00;16.30;;;5.35;;
43160;SDS011;40968;52.342;5.528;2023-05-10T12:42:30;12.48;;;4.60;;
43160;SDS011;40968;52.342;5.528;2023-05-10T12:44:58;11.15;;;4.60;;
43160;SDS011;40968;52.342;5.528;2023-05-10T12:47:24;9.85;;;3.85;;
43160;SDS011;40968;52.342;5.528;2023-05-10T12:49:51;12.55;;;4.30;;
43160;SDS011;40968;52.342;5.528;2023-05-10T12:52:18;13.30;;;4.63;;
43160;SDS011;40968;52.342;5.528;2023-05-10T12:54:44;10.80;;;4.53;;
43160;SDS011;40968;52.342;5.528;2023-05-10T12:57:12;11.73;;;4.10;;
43160;SDS011;40968;52.342;5.528;2023-05-10T12:59:39;13.95;;;4.40;;
43160;SDS011;40968;52.342;5.528;2023-05-10T13:02:06;16.02;;;5.22;;
43160;SDS011;40968;52.342;5.528;2023-05-10T13:04:33;15.88;;;5.18;;
43160;SDS011;40968;52.342;5.528;2023-05-10T13:07:00;19.08;;;5.30;;
43160;SDS011;40968;52.342;5.528;2023-05-10T13:09:26;18.50;;;5.50;;
43160;SDS011;40968;52.342;5.528;2023-05-10T13:11:54;22.30;;;5.53;;
43160;SDS011;40968;52.342;5.528;2023-05-10T13:14:21;16.25;;;5.45;;
43160;SDS011;40968;52.342;5.528;2023-05-10T13:16:47;17.17;;;6.00;;
43160;SDS011;40968;52.342;5.528;2023-05-10T13:19:16;13.73;;;5.40;;
43160;SDS011;40968;52.342;5.528;2023-05-10T13:21:43;17.00;;;5.30;;
43160;SDS011;40968;52.342;5.528;2023-05-10T13:24:10;15.38;;;5.88;;
43160;SDS011;40968;52.342;5.528;2023-05-10T13:26:38;17.13;;;6.10;;
43160;SDS011;40968;52.342;5.528;2023-05-10T13:29:05;26.13;;;6.68;;
43160;SDS011;40968;52.342;5.528;2023-05-10T13:31:33;14.93;;;5.95;;
43160;SDS011;40968;52.342;5.528;2023-05-10T13:34:00;13.75;;;5.55;;
43160;SDS011;40968;52.342;5.528;2023-05-10T13:36:28;18.85;;;6.30;;
43160;SDS011;40968;52.342;5.528;2023-05-10T13:38:55;21.52;;;6.82;;
43160;SDS011;40968;52.342;5.528;2023-05-10T13:41:22;15.48;;;5.53;;
43160;SDS011;40968;52.342;5.528;2023-05-10T13:43:48;19.30;;;6.13;;
43160;SDS011;40968;52.342;5.528;2023-05-10T13:46:15;18.05;;;5.97;;
43160;SDS011;40968;52.342;5.528;2023-05-10T13:48:41;18.98;;;5.68;;
43160;SDS011;40968;52.342;5.528;2023-05-10T13:51:08;19.13;;;6.25;;
43160;SDS011;40968;52.342;5.528;2023-05-10T13:53:36;22.17;;;7.28;;
43160;SDS011;40968;52.342;5.528;2023-05-10T13:56:02;15.82;;;4.55;;
43160;SDS011;40968;52.342;5.528;2023-05-10T13:58:29;12.00;;;4.22;;
43160;SDS011;40968;52.342;5.528;2023-05-10T14:00:56;10.65;;;4.60;;
43160;SDS011;40968;52.342;5.528;2023-05-10T14:03:22;13.23;;;4.28;;
43160;SDS011;40968;52.342;5.528;2023-05-10T14:05:49;14.50;;;4.90;;
43160;SDS011;40968;52.342;5.528;2023-05-10T14:08:16;17.23;;;4.57;;
43160;SDS011;40968;52.342;5.528;2023-05-10T14:10:44;12.77;;;4.38;;
43160;SDS011;40968;52.342;5.528;2023-05-10T14:13:10;10.38;;;4.32;;
43160;SDS011;40968;52.342;5.528;2023-05-10T14:15:37;12.85;;;4.28;;
43160;SDS011;40968;52.342;5.528;2023-05-10T14:18:03;12.90;;;4.15;;
43160;SDS011;40968;52.342;5.528;2023-05-10T14:20:30;15.05;;;4.07;;
43160;SDS011;40968;52.342;5.528;2023-05-10T14:22:58;15.25;;;5.47;;
43160;SDS011;40968;52.342;5.528;2023-05-10T14:25:28;12.13;;;4.38;;
43160;SDS011;40968;52.342;5.528;2023-05-10T14:27:56;14.07;;;4.75;;
43160;SDS011;40968;52.342;5.528;2023-05-10T14:30:22;15.60;;;3.85;;
43160;SDS011;40968;52.342;5.528;2023-05-10T14:32:49;11.52;;;3.92;;
43160;SDS011;40968;52.342;5.528;2023-05-10T14:35:16;13.57;;;3.95;;